sensor_id;sensor_type;location;lat;lon;timestamp;pressure;altitude;pressure_sealevel;temperature;humidity
45050;BME280;61798;48.048;-1.928;2023-08-06T00:01:10;100976.25;;;12.71;100.00
45050;BME280;61798;48.048;-1.928;2023-08-06T00:03:16;100949.75;;;12.61;100.00
45050;BME280;61798;48.048;-1.928;2023-08-06T00:05:23;100966.72;;;12.68;100.00
45050;BME280;61798;48.048;-1.928;2023-08-06T00:07:29;100955.13;;;12.61;100.00
45050;BME280;61798;48.048;-1.928;2023-08-06T00:09:35;100962.78;;;12.64;100.00
45050;BME280;61798;48.048;-1.928;2023-08-06T00:11:41;100981.69;;;12.77;100.00
45050;BME280;61798;48.048;-1.928;2023-08-06T00:13:49;100975.09;;;12.87;100.00
45050;BME280;61798;48.048;-1.928;2023-08-06T00:15:55;100944.19;;;12.69;100.00
45050;BME280;61798;48.048;-1.928;2023-08-06T00:18:01;100946.69;;;12.35;100.00
45050;BME280;61798;48.048;-1.928;2023-08-06T00:20:07;100975.75;;;12.53;100.00
45050;BME280;61798;48.048;-1.928;2023-08-06T00:22:14;100969.75;;;12.58;100.00
45050;BME280;61798;48.048;-1.928;2023-08-06T00:24:20;100972.53;;;12.72;100.00
45050;BME280;61798;48.048;-1.928;2023-08-06T00:26:26;100993.88;;;12.80;100.00
45050;BME280;61798;48.048;-1.928;2023-08-06T00:28:32;100970.44;;;12.67;100.00
45050;BME280;61798;48.048;-1.928;2023-08-06T00:30:38;100933.84;;;12.30;100.00
45050;BME280;61798;48.048;-1.928;2023-08-06T00:32:44;100995.63;;;12.59;100.00
45050;BME280;61798;48.048;-1.928;2023-08-06T00:34:50;100960.22;;;12.20;100.00
45050;BME280;61798;48.048;-1.928;2023-08-06T00:36:56;100967.88;;;12.52;100.00
45050;BME280;61798;48.048;-1.928;2023-08-06T00:39:02;100964.22;;;12.02;100.00
45050;BME280;61798;48.048;-1.928;2023-08-06T00:41:08;100983.03;;;12.31;100.00
45050;BME280;61798;48.048;-1.928;2023-08-06T00:43:14;100971.09;;;12.11;100.00
45050;BME280;61798;48.048;-1.928;2023-08-06T00:45:21;101007.69;;;12.12;100.00
45050;BME280;61798;48.048;-1.928;2023-08-06T00:47:28;101021.16;;;12.41;100.00
45050;BME280;61798;48.048;-1.928;2023-08-06T00:49:36;100989.28;;;11.87;100.00
45050;BME280;61798;48.048;-1.928;2023-08-06T00:51:42;100988.88;;;12.12;100.00
45050;BME280;61798;48.048;-1.928;2023-08-06T00:53:50;100983.50;;;12.12;100.00
45050;BME280;61798;48.048;-1.928;2023-08-06T00:55:56;100989.22;;;12.24;100.00
45050;BME280;61798;48.048;-1.928;2023-08-06T00:58:05;101045.31;;;12.70;100.00
45050;BME280;61798;48.048;-1.928;2023-08-06T01:00:11;101024.06;;;12.46;100.00
45050;BME280;61798;48.048;-1.928;2023-08-06T01:02:18;100978.75;;;12.14;100.00
45050;BME280;61798;48.048;-1.928;2023-08-06T01:04:24;100991.16;;;12.15;100.00
45050;BME280;61798;48.048;-1.928;2023-08-06T01:06:44;101046.13;;;12.64;100.00
45050;BME280;61798;48.048;-1.928;2023-08-06T01:08:58;101006.91;;;12.41;100.00
45050;BME280;61798;48.048;-1.928;2023-08-06T01:11:33;101051.78;;;12.47;100.00
45050;BME280;61798;48.048;-1.928;2023-08-06T01:13:46;101037.75;;;11.79;100.00
45050;BME280;61798;48.048;-1.928;2023-08-06T01:15:55;101019.34;;;11.98;100.00
45050;BME280;61798;48.048;-1.928;2023-08-06T01:18:03;101062.47;;;12.33;100.00
45050;BME280;61798;48.048;-1.928;2023-08-06T01:20:09;101013.84;;;12.06;100.00
45050;BME280;61798;48.048;-1.928;2023-08-06T01:22:15;101000.94;;;12.16;100.00
45050;BME280;61798;48.048;-1.928;2023-08-06T01:24:22;101005.16;;;11.82;100.00
45050;BME280;61798;48.048;-1.928;2023-08-06T01:26:37;101007.66;;;11.61;100.00
45050;BME280;61798;48.048;-1.928;2023-08-06T01:30:53;101021.63;;;11.79;100.00
45050;BME280;61798;48.048;-1.928;2023-08-06T01:33:04;101069.59;;;12.04;100.00
45050;BME280;61798;48.048;-1.928;2023-08-06T01:35:11;101007.84;;;11.82;100.00
45050;BME280;61798;48.048;-1.928;2023-08-06T01:37:18;101049.13;;;12.03;100.00
45050;BME280;61798;48.048;-1.928;2023-08-06T01:39:24;101052.81;;;12.17;100.00
45050;BME280;61798;48.048;-1.928;2023-08-06T01:41:30;101018.00;;;11.87;100.00
45050;BME280;61798;48.048;-1.928;2023-08-06T01:43:36;101052.88;;;12.02;100.00
45050;BME280;61798;48.048;-1.928;2023-08-06T01:45:42;101019.78;;;11.79;100.00
45050;BME280;61798;48.048;-1.928;2023-08-06T01:47:48;101061.41;;;11.90;100.00
45050;BME280;61798;48.048;-1.928;2023-08-06T01:49:55;101026.69;;;11.89;100.00
45050;BME280;61798;48.048;-1.928;2023-08-06T01:52:01;101049.56;;;12.22;100.00
45050;BME280;61798;48.048;-1.928;2023-08-06T01:54:07;101050.00;;;12.10;100.00
45050;BME280;61798;48.048;-1.928;2023-08-06T01:56:13;101028.09;;;11.84;100.00
45050;BME280;61798;48.048;-1.928;2023-08-06T01:58:19;101086.13;;;12.23;100.00
45050;BME280;61798;48.048;-1.928;2023-08-06T02:00:25;101078.72;;;12.25;100.00
45050;BME280;61798;48.048;-1.928;2023-08-06T02:02:31;101038.16;;;11.98;100.00
45050;BME280;61798;48.048;-1.928;2023-08-06T02:04:37;101029.34;;;11.82;100.00
45050;BME280;61798;48.048;-1.928;2023-08-06T02:06:43;101039.41;;;11.80;100.00
45050;BME280;61798;48.048;-1.928;2023-08-06T02:08:50;101092.59;;;12.29;100.00
45050;BME280;61798;48.048;-1.928;2023-08-06T02:10:56;101093.03;;;12.32;100.00
45050;BME280;61798;48.048;-1.928;2023-08-06T02:13:03;101077.41;;;11.99;100.00
45050;BME280;61798;48.048;-1.928;2023-08-06T02:15:09;101058.97;;;11.95;100.00
45050;BME280;61798;48.048;-1.928;2023-08-06T02:17:15;101054.56;;;11.88;100.00
45050;BME280;61798;48.048;-1.928;2023-08-06T02:19:21;101038.69;;;11.71;100.00
45050;BME280;61798;48.048;-1.928;2023-08-06T02:21:28;101114.75;;;12.15;100.00
45050;BME280;61798;48.048;-1.928;2023-08-06T02:23:34;101107.59;;;12.01;100.00
45050;BME280;61798;48.048;-1.928;2023-08-06T02:25:40;101054.25;;;11.76;100.00
45050;BME280;61798;48.048;-1.928;2023-08-06T02:27:46;101061.97;;;11.63;100.00
45050;BME280;61798;48.048;-1.928;2023-08-06T02:29:52;101110.00;;;11.95;100.00
45050;BME280;61798;48.048;-1.928;2023-08-06T02:31:58;101042.22;;;11.49;100.00
45050;BME280;61798;48.048;-1.928;2023-08-06T02:34:07;101039.16;;;11.74;100.00
45050;BME280;61798;48.048;-1.928;2023-08-06T02:36:13;101044.97;;;11.56;100.00
45050;BME280;61798;48.048;-1.928;2023-08-06T02:38:19;101034.41;;;11.55;100.00
45050;BME280;61798;48.048;-1.928;2023-08-06T02:40:25;101106.69;;;11.93;100.00
45050;BME280;61798;48.048;-1.928;2023-08-06T02:42:31;101089.81;;;12.00;100.00
45050;BME280;61798;48.048;-1.928;2023-08-06T02:44:38;101064.25;;;11.82;100.00
45050;BME280;61798;48.048;-1.928;2023-08-06T02:46:44;101057.13;;;11.37;100.00
45050;BME280;61798;48.048;-1.928;2023-08-06T02:48:51;101102.84;;;12.03;100.00
45050;BME280;61798;48.048;-1.928;2023-08-06T02:50:58;101049.59;;;11.84;100.00
45050;BME280;61798;48.048;-1.928;2023-08-06T02:53:08;101063.97;;;11.39;100.00
45050;BME280;61798;48.048;-1.928;2023-08-06T02:55:14;101088.06;;;11.55;100.00
45050;BME280;61798;48.048;-1.928;2023-08-06T02:57:20;101102.34;;;11.92;100.00
45050;BME280;61798;48.048;-1.928;2023-08-06T02:59:27;101056.69;;;11.70;100.00
45050;BME280;61798;48.048;-1.928;2023-08-06T03:01:35;101100.09;;;11.59;100.00
45050;BME280;61798;48.048;-1.928;2023-08-06T03:03:42;101063.03;;;11.47;100.00
45050;BME280;61798;48.048;-1.928;2023-08-06T03:05:52;101073.84;;;11.54;100.00
45050;BME280;61798;48.048;-1.928;2023-08-06T03:07:59;101066.25;;;11.58;100.00
45050;BME280;61798;48.048;-1.928;2023-08-06T03:10:06;101092.03;;;11.74;100.00
45050;BME280;61798;48.048;-1.928;2023-08-06T03:12:15;101078.16;;;11.70;100.00
45050;BME280;61798;48.048;-1.928;2023-08-06T03:14:21;101104.06;;;11.63;100.00
45050;BME280;61798;48.048;-1.928;2023-08-06T03:16:27;101087.63;;;11.66;100.00
45050;BME280;61798;48.048;-1.928;2023-08-06T03:18:34;101037.50;;;11.36;100.00
45050;BME280;61798;48.048;-1.928;2023-08-06T03:20:40;101046.56;;;11.35;100.00
45050;BME280;61798;48.048;-1.928;2023-08-06T03:22:46;101063.38;;;11.59;100.00
45050;BME280;61798;48.048;-1.928;2023-08-06T03:24:53;101047.59;;;11.71;100.00
45050;BME280;61798;48.048;-1.928;2023-08-06T03:26:59;101059.63;;;11.38;100.00
45050;BME280;61798;48.048;-1.928;2023-08-06T03:29:05;101051.41;;;11.25;100.00
45050;BME280;61798;48.048;-1.928;2023-08-06T03:31:11;101044.69;;;11.14;100.00
45050;BME280;61798;48.048;-1.928;2023-08-06T03:33:17;101105.19;;;11.69;100.00
45050;BME280;61798;48.048;-1.928;2023-08-06T03:35:23;101031.75;;;11.39;100.00
45050;BME280;61798;48.048;-1.928;2023-08-06T03:37:29;101079.06;;;11.78;100.00
45050;BME280;61798;48.048;-1.928;2023-08-06T03:39:35;101080.44;;;11.36;100.00
45050;BME280;61798;48.048;-1.928;2023-08-06T03:41:41;101058.56;;;11.55;100.00
45050;BME280;61798;48.048;-1.928;2023-08-06T03:43:56;101093.19;;;11.49;100.00
45050;BME280;61798;48.048;-1.928;2023-08-06T03:46:02;101042.63;;;11.16;100.00
45050;BME280;61798;48.048;-1.928;2023-08-06T03:48:09;101071.56;;;11.36;100.00
45050;BME280;61798;48.048;-1.928;2023-08-06T03:50:15;101105.59;;;11.50;100.00
45050;BME280;61798;48.048;-1.928;2023-08-06T03:52:22;101066.13;;;11.14;100.00
45050;BME280;61798;48.048;-1.928;2023-08-06T03:54:30;101061.63;;;11.51;100.00
45050;BME280;61798;48.048;-1.928;2023-08-06T03:56:37;101069.03;;;11.49;100.00
45050;BME280;61798;48.048;-1.928;2023-08-06T03:58:44;101066.75;;;11.46;100.00
45050;BME280;61798;48.048;-1.928;2023-08-06T04:00:58;101078.69;;;11.28;100.00
45050;BME280;61798;48.048;-1.928;2023-08-06T04:03:05;101062.00;;;11.48;100.00
45050;BME280;61798;48.048;-1.928;2023-08-06T04:05:11;101064.03;;;11.61;100.00
45050;BME280;61798;48.048;-1.928;2023-08-06T04:07:18;101067.50;;;11.25;100.00
45050;BME280;61798;48.048;-1.928;2023-08-06T04:09:24;101088.19;;;11.61;100.00
45050;BME280;61798;48.048;-1.928;2023-08-06T04:11:30;101090.53;;;11.49;100.00
45050;BME280;61798;48.048;-1.928;2023-08-06T04:13:36;101086.94;;;11.42;100.00
45050;BME280;61798;48.048;-1.928;2023-08-06T04:15:42;101072.13;;;11.46;100.00
45050;BME280;61798;48.048;-1.928;2023-08-06T04:17:49;101080.69;;;11.57;100.00
45050;BME280;61798;48.048;-1.928;2023-08-06T04:19:56;101129.81;;;11.72;100.00
45050;BME280;61798;48.048;-1.928;2023-08-06T04:22:05;101101.25;;;11.49;100.00
45050;BME280;61798;48.048;-1.928;2023-08-06T04:24:12;101070.19;;;11.25;100.00
45050;BME280;61798;48.048;-1.928;2023-08-06T04:26:18;101086.06;;;11.57;100.00
45050;BME280;61798;48.048;-1.928;2023-08-06T04:28:25;101082.25;;;11.51;100.00
45050;BME280;61798;48.048;-1.928;2023-08-06T04:30:31;101072.34;;;11.14;100.00
45050;BME280;61798;48.048;-1.928;2023-08-06T04:32:37;101100.63;;;11.32;100.00
45050;BME280;61798;48.048;-1.928;2023-08-06T04:34:43;101073.88;;;11.24;100.00
45050;BME280;61798;48.048;-1.928;2023-08-06T04:36:49;101089.97;;;11.24;100.00
45050;BME280;61798;48.048;-1.928;2023-08-06T04:38:56;101137.09;;;11.79;100.00
45050;BME280;61798;48.048;-1.928;2023-08-06T04:41:03;101146.94;;;11.71;100.00
45050;BME280;61798;48.048;-1.928;2023-08-06T04:43:09;101135.84;;;11.44;100.00
45050;BME280;61798;48.048;-1.928;2023-08-06T04:45:16;101106.00;;;11.17;100.00
45050;BME280;61798;48.048;-1.928;2023-08-06T04:47:22;101126.25;;;11.50;100.00
45050;BME280;61798;48.048;-1.928;2023-08-06T04:49:29;101094.25;;;11.18;100.00
45050;BME280;61798;48.048;-1.928;2023-08-06T04:51:35;101114.69;;;11.19;100.00
45050;BME280;61798;48.048;-1.928;2023-08-06T04:53:41;101129.22;;;11.25;100.00
45050;BME280;61798;48.048;-1.928;2023-08-06T04:55:47;101150.47;;;11.57;100.00
45050;BME280;61798;48.048;-1.928;2023-08-06T04:57:54;101177.16;;;11.58;100.00
45050;BME280;61798;48.048;-1.928;2023-08-06T05:00:01;101115.50;;;11.35;100.00
45050;BME280;61798;48.048;-1.928;2023-08-06T05:02:08;101129.28;;;11.47;100.00
45050;BME280;61798;48.048;-1.928;2023-08-06T05:04:16;101129.84;;;11.57;100.00
45050;BME280;61798;48.048;-1.928;2023-08-06T05:06:22;101176.31;;;11.58;100.00
45050;BME280;61798;48.048;-1.928;2023-08-06T05:08:32;101140.66;;;11.64;100.00
45050;BME280;61798;48.048;-1.928;2023-08-06T05:10:42;101115.50;;;11.35;100.00
45050;BME280;61798;48.048;-1.928;2023-08-06T05:12:49;101148.72;;;11.49;100.00
45050;BME280;61798;48.048;-1.928;2023-08-06T05:14:55;101142.25;;;11.43;100.00
45050;BME280;61798;48.048;-1.928;2023-08-06T05:17:05;101183.16;;;11.60;100.00
45050;BME280;61798;48.048;-1.928;2023-08-06T05:19:11;101182.28;;;11.75;100.00
45050;BME280;61798;48.048;-1.928;2023-08-06T05:21:18;101154.75;;;11.36;100.00
45050;BME280;61798;48.048;-1.928;2023-08-06T05:23:28;101131.81;;;11.18;100.00
45050;BME280;61798;48.048;-1.928;2023-08-06T05:25:35;101192.84;;;11.77;100.00
45050;BME280;61798;48.048;-1.928;2023-08-06T05:27:44;101147.63;;;11.58;100.00
45050;BME280;61798;48.048;-1.928;2023-08-06T05:29:58;101139.84;;;11.48;100.00
45050;BME280;61798;48.048;-1.928;2023-08-06T05:32:05;101155.09;;;11.48;100.00
45050;BME280;61798;48.048;-1.928;2023-08-06T05:34:12;101150.91;;;11.76;100.00
45050;BME280;61798;48.048;-1.928;2023-08-06T05:36:18;101158.69;;;11.55;100.00
45050;BME280;61798;48.048;-1.928;2023-08-06T05:38:25;101167.88;;;11.61;100.00
45050;BME280;61798;48.048;-1.928;2023-08-06T05:40:33;101168.97;;;11.51;100.00
45050;BME280;61798;48.048;-1.928;2023-08-06T05:42:40;101215.44;;;11.67;100.00
45050;BME280;61798;48.048;-1.928;2023-08-06T05:44:46;101152.25;;;11.34;100.00
45050;BME280;61798;48.048;-1.928;2023-08-06T05:46:53;101141.50;;;11.49;100.00
45050;BME280;61798;48.048;-1.928;2023-08-06T05:48:59;101205.06;;;11.64;100.00
45050;BME280;61798;48.048;-1.928;2023-08-06T05:51:06;101179.19;;;11.41;100.00
45050;BME280;61798;48.048;-1.928;2023-08-06T05:53:12;101150.28;;;11.43;100.00
45050;BME280;61798;48.048;-1.928;2023-08-06T05:55:19;101182.38;;;11.82;100.00
45050;BME280;61798;48.048;-1.928;2023-08-06T05:57:26;101170.72;;;11.74;100.00
45050;BME280;61798;48.048;-1.928;2023-08-06T05:59:32;101228.09;;;12.04;100.00
45050;BME280;61798;48.048;-1.928;2023-08-06T06:01:38;101197.84;;;11.80;100.00
45050;BME280;61798;48.048;-1.928;2023-08-06T06:03:44;101182.03;;;11.70;100.00
45050;BME280;61798;48.048;-1.928;2023-08-06T06:05:50;101191.56;;;11.72;100.00
45050;BME280;61798;48.048;-1.928;2023-08-06T06:07:57;101173.59;;;11.73;100.00
45050;BME280;61798;48.048;-1.928;2023-08-06T06:10:03;101175.25;;;11.89;100.00
45050;BME280;61798;48.048;-1.928;2023-08-06T06:12:10;101166.91;;;11.84;100.00
45050;BME280;61798;48.048;-1.928;2023-08-06T06:14:17;101192.41;;;12.10;100.00
45050;BME280;61798;48.048;-1.928;2023-08-06T06:16:23;101210.50;;;12.16;100.00
45050;BME280;61798;48.048;-1.928;2023-08-06T06:18:30;101190.75;;;12.09;100.00
45050;BME280;61798;48.048;-1.928;2023-08-06T06:20:36;101199.06;;;12.14;100.00
45050;BME280;61798;48.048;-1.928;2023-08-06T06:22:46;101200.66;;;12.09;100.00
45050;BME280;61798;48.048;-1.928;2023-08-06T06:24:55;101227.56;;;12.46;100.00
45050;BME280;61798;48.048;-1.928;2023-08-06T06:27:01;101241.69;;;12.55;100.00
45050;BME280;61798;48.048;-1.928;2023-08-06T06:29:07;101235.47;;;12.54;100.00
45050;BME280;61798;48.048;-1.928;2023-08-06T06:31:13;101267.75;;;12.76;100.00
45050;BME280;61798;48.048;-1.928;2023-08-06T06:33:19;101242.22;;;12.65;100.00
45050;BME280;61798;48.048;-1.928;2023-08-06T06:35:25;101224.72;;;12.54;100.00
45050;BME280;61798;48.048;-1.928;2023-08-06T06:37:31;101252.25;;;12.78;100.00
45050;BME280;61798;48.048;-1.928;2023-08-06T06:39:37;101212.94;;;12.55;100.00
45050;BME280;61798;48.048;-1.928;2023-08-06T06:41:43;101252.00;;;12.73;100.00
45050;BME280;61798;48.048;-1.928;2023-08-06T06:43:50;101261.06;;;12.94;100.00
45050;BME280;61798;48.048;-1.928;2023-08-06T06:45:57;101257.75;;;12.92;100.00
45050;BME280;61798;48.048;-1.928;2023-08-06T06:48:04;101247.78;;;12.86;100.00
45050;BME280;61798;48.048;-1.928;2023-08-06T06:50:10;101218.19;;;12.64;100.00
45050;BME280;61798;48.048;-1.928;2023-08-06T06:52:16;101243.44;;;12.85;100.00
45050;BME280;61798;48.048;-1.928;2023-08-06T06:54:22;101260.75;;;13.04;100.00
45050;BME280;61798;48.048;-1.928;2023-08-06T06:56:28;101259.09;;;13.03;100.00
45050;BME280;61798;48.048;-1.928;2023-08-06T06:58:34;101226.31;;;12.93;100.00
45050;BME280;61798;48.048;-1.928;2023-08-06T07:00:40;101264.03;;;13.21;100.00
45050;BME280;61798;48.048;-1.928;2023-08-06T07:02:46;101291.41;;;13.32;100.00
45050;BME280;61798;48.048;-1.928;2023-08-06T07:04:52;101253.75;;;13.10;100.00
45050;BME280;61798;48.048;-1.928;2023-08-06T07:06:58;101275.66;;;13.29;100.00
45050;BME280;61798;48.048;-1.928;2023-08-06T07:09:04;101238.84;;;13.07;100.00
45050;BME280;61798;48.048;-1.928;2023-08-06T07:11:17;101276.13;;;13.39;100.00
45050;BME280;61798;48.048;-1.928;2023-08-06T07:13:38;101274.91;;;13.42;100.00
45050;BME280;61798;48.048;-1.928;2023-08-06T07:15:44;101273.69;;;13.45;100.00
45050;BME280;61798;48.048;-1.928;2023-08-06T07:18:17;101288.53;;;13.62;100.00
45050;BME280;61798;48.048;-1.928;2023-08-06T07:20:33;101244.47;;;13.41;100.00
45050;BME280;61798;48.048;-1.928;2023-08-06T07:22:46;101277.75;;;13.62;100.00
45050;BME280;61798;48.048;-1.928;2023-08-06T07:24:58;101298.56;;;13.76;100.00
45050;BME280;61798;48.048;-1.928;2023-08-06T07:27:05;101270.81;;;13.82;100.00
45050;BME280;61798;48.048;-1.928;2023-08-06T07:29:11;101252.41;;;13.85;100.00
45050;BME280;61798;48.048;-1.928;2023-08-06T07:31:17;101270.94;;;14.02;100.00
45050;BME280;61798;48.048;-1.928;2023-08-06T07:33:23;101230.63;;;13.80;100.00
45050;BME280;61798;48.048;-1.928;2023-08-06T07:35:29;101262.63;;;13.97;100.00
45050;BME280;61798;48.048;-1.928;2023-08-06T07:37:35;101256.03;;;14.06;100.00
45050;BME280;61798;48.048;-1.928;2023-08-06T07:39:41;101260.56;;;13.99;100.00
45050;BME280;61798;48.048;-1.928;2023-08-06T07:41:48;101231.53;;;14.01;100.00
45050;BME280;61798;48.048;-1.928;2023-08-06T07:43:54;101256.09;;;14.27;100.00
45050;BME280;61798;48.048;-1.928;2023-08-06T07:46:01;101283.53;;;14.58;100.00
45050;BME280;61798;48.048;-1.928;2023-08-06T07:48:07;101235.34;;;14.21;100.00
45050;BME280;61798;48.048;-1.928;2023-08-06T07:50:13;101255.50;;;14.38;100.00
45050;BME280;61798;48.048;-1.928;2023-08-06T07:52:19;101288.34;;;14.69;100.00
45050;BME280;61798;48.048;-1.928;2023-08-06T07:54:25;101225.44;;;14.42;100.00
45050;BME280;61798;48.048;-1.928;2023-08-06T07:56:32;101251.38;;;14.43;100.00
45050;BME280;61798;48.048;-1.928;2023-08-06T07:58:38;101269.50;;;14.83;100.00
45050;BME280;61798;48.048;-1.928;2023-08-06T08:00:44;101254.97;;;14.84;100.00
45050;BME280;61798;48.048;-1.928;2023-08-06T08:02:51;101237.72;;;14.72;100.00
45050;BME280;61798;48.048;-1.928;2023-08-06T08:04:57;101239.78;;;14.69;100.00
45050;BME280;61798;48.048;-1.928;2023-08-06T08:07:03;101224.25;;;14.72;100.00
45050;BME280;61798;48.048;-1.928;2023-08-06T08:09:09;101223.81;;;14.82;100.00
45050;BME280;61798;48.048;-1.928;2023-08-06T08:11:15;101263.31;;;15.03;100.00
45050;BME280;61798;48.048;-1.928;2023-08-06T08:13:22;101233.22;;;14.93;100.00
45050;BME280;61798;48.048;-1.928;2023-08-06T08:15:29;101215.50;;;14.69;100.00
45050;BME280;61798;48.048;-1.928;2023-08-06T08:17:35;101251.25;;;15.06;100.00
45050;BME280;61798;48.048;-1.928;2023-08-06T08:19:41;101229.66;;;15.13;100.00
45050;BME280;61798;48.048;-1.928;2023-08-06T08:21:47;101223.16;;;15.48;100.00
45050;BME280;61798;48.048;-1.928;2023-08-06T08:23:53;101257.56;;;15.80;100.00
45050;BME280;61798;48.048;-1.928;2023-08-06T08:25:59;101265.47;;;15.74;100.00
45050;BME280;61798;48.048;-1.928;2023-08-06T08:28:08;101202.13;;;15.57;100.00
45050;BME280;61798;48.048;-1.928;2023-08-06T08:30:14;101225.44;;;15.51;100.00
45050;BME280;61798;48.048;-1.928;2023-08-06T08:32:20;101247.44;;;15.68;100.00
45050;BME280;61798;48.048;-1.928;2023-08-06T08:34:26;101241.16;;;15.74;100.00
45050;BME280;61798;48.048;-1.928;2023-08-06T08:36:32;101267.31;;;15.81;100.00
45050;BME280;61798;48.048;-1.928;2023-08-06T08:38:38;101263.63;;;15.75;100.00
45050;BME280;61798;48.048;-1.928;2023-08-06T08:40:51;101267.59;;;15.72;100.00
45050;BME280;61798;48.048;-1.928;2023-08-06T08:42:59;101251.53;;;15.78;100.00
45050;BME280;61798;48.048;-1.928;2023-08-06T08:45:12;101276.00;;;16.03;100.00
45050;BME280;61798;48.048;-1.928;2023-08-06T08:47:19;101241.94;;;15.95;100.00
45050;BME280;61798;48.048;-1.928;2023-08-06T08:49:27;101235.97;;;15.80;100.00
45050;BME280;61798;48.048;-1.928;2023-08-06T08:51:34;101264.63;;;15.81;100.00
45050;BME280;61798;48.048;-1.928;2023-08-06T08:53:44;101249.47;;;15.73;100.00
45050;BME280;61798;48.048;-1.928;2023-08-06T08:55:51;101257.75;;;15.85;100.00
45050;BME280;61798;48.048;-1.928;2023-08-06T08:57:58;101264.38;;;15.96;100.00
45050;BME280;61798;48.048;-1.928;2023-08-06T09:00:05;101249.34;;;16.07;100.00
45050;BME280;61798;48.048;-1.928;2023-08-06T09:02:12;101232.28;;;16.13;100.00
45050;BME280;61798;48.048;-1.928;2023-08-06T09:04:20;101249.63;;;16.38;100.00
45050;BME280;61798;48.048;-1.928;2023-08-06T09:06:27;101236.38;;;16.30;100.00
45050;BME280;61798;48.048;-1.928;2023-08-06T09:08:37;101273.41;;;16.62;100.00
45050;BME280;61798;48.048;-1.928;2023-08-06T09:10:48;101235.91;;;16.40;100.00
45050;BME280;61798;48.048;-1.928;2023-08-06T09:12:56;101262.97;;;16.40;100.00
45050;BME280;61798;48.048;-1.928;2023-08-06T09:15:03;101261.41;;;16.18;100.00
45050;BME280;61798;48.048;-1.928;2023-08-06T09:17:09;101250.53;;;16.32;100.00
45050;BME280;61798;48.048;-1.928;2023-08-06T09:19:18;101269.56;;;16.76;100.00
45050;BME280;61798;48.048;-1.928;2023-08-06T09:21:24;101262.53;;;17.01;100.00
45050;BME280;61798;48.048;-1.928;2023-08-06T09:23:31;101251.88;;;17.06;100.00
45050;BME280;61798;48.048;-1.928;2023-08-06T09:25:40;101267.81;;;16.89;100.00
45050;BME280;61798;48.048;-1.928;2023-08-06T09:27:46;101262.00;;;16.59;100.00
45050;BME280;61798;48.048;-1.928;2023-08-06T09:29:53;101261.31;;;16.71;100.00
45050;BME280;61798;48.048;-1.928;2023-08-06T09:31:59;101262.91;;;17.05;100.00
45050;BME280;61798;48.048;-1.928;2023-08-06T09:34:10;101244.13;;;17.10;100.00
45050;BME280;61798;48.048;-1.928;2023-08-06T09:36:17;101242.47;;;17.35;100.00
45050;BME280;61798;48.048;-1.928;2023-08-06T09:38:24;101246.44;;;17.32;100.00
45050;BME280;61798;48.048;-1.928;2023-08-06T09:40:31;101231.47;;;17.29;100.00
45050;BME280;61798;48.048;-1.928;2023-08-06T09:42:37;101244.34;;;17.34;100.00
45050;BME280;61798;48.048;-1.928;2023-08-06T09:44:43;101241.47;;;17.48;100.00
45050;BME280;61798;48.048;-1.928;2023-08-06T09:46:51;101238.03;;;17.78;100.00
45050;BME280;61798;48.048;-1.928;2023-08-06T09:48:57;101251.25;;;18.05;100.00
45050;BME280;61798;48.048;-1.928;2023-08-06T09:51:03;101232.16;;;18.12;100.00
45050;BME280;61798;48.048;-1.928;2023-08-06T09:53:09;101249.00;;;18.02;100.00
45050;BME280;61798;48.048;-1.928;2023-08-06T09:55:15;101256.63;;;17.74;100.00
45050;BME280;61798;48.048;-1.928;2023-08-06T09:57:24;101242.00;;;17.38;100.00
45050;BME280;61798;48.048;-1.928;2023-08-06T09:59:32;101244.94;;;17.36;100.00
45050;BME280;61798;48.048;-1.928;2023-08-06T10:01:38;101257.44;;;17.56;100.00
45050;BME280;61798;48.048;-1.928;2023-08-06T10:03:44;101274.00;;;17.48;100.00
45050;BME280;61798;48.048;-1.928;2023-08-06T10:05:51;101236.97;;;17.60;100.00
45050;BME280;61798;48.048;-1.928;2023-08-06T10:07:59;101241.00;;;18.07;100.00
45050;BME280;61798;48.048;-1.928;2023-08-06T10:10:07;101247.41;;;18.44;100.00
45050;BME280;61798;48.048;-1.928;2023-08-06T10:12:13;101233.09;;;18.25;100.00
45050;BME280;61798;48.048;-1.928;2023-08-06T10:14:35;101231.84;;;18.21;100.00
45050;BME280;61798;48.048;-1.928;2023-08-06T10:16:42;101235.97;;;18.11;100.00
45050;BME280;61798;48.048;-1.928;2023-08-06T10:18:49;101223.44;;;17.79;100.00
45050;BME280;61798;48.048;-1.928;2023-08-06T10:20:56;101244.16;;;18.23;100.00
45050;BME280;61798;48.048;-1.928;2023-08-06T10:23:03;101222.25;;;18.06;100.00
45050;BME280;61798;48.048;-1.928;2023-08-06T10:25:09;101252.97;;;18.49;100.00
45050;BME280;61798;48.048;-1.928;2023-08-06T10:27:39;101228.81;;;18.60;100.00
45050;BME280;61798;48.048;-1.928;2023-08-06T10:29:45;101244.38;;;18.53;100.00
45050;BME280;61798;48.048;-1.928;2023-08-06T10:31:55;101242.66;;;18.70;100.00
45050;BME280;61798;48.048;-1.928;2023-08-06T10:34:04;101228.63;;;18.98;100.00
45050;BME280;61798;48.048;-1.928;2023-08-06T10:36:10;101217.50;;;18.75;100.00
45050;BME280;61798;48.048;-1.928;2023-08-06T10:38:18;101236.66;;;18.92;100.00
45050;BME280;61798;48.048;-1.928;2023-08-06T10:40:27;101241.38;;;19.09;100.00
45050;BME280;61798;48.048;-1.928;2023-08-06T10:42:35;101227.94;;;19.15;100.00
45050;BME280;61798;48.048;-1.928;2023-08-06T10:45:12;101243.28;;;19.21;100.00
45050;BME280;61798;48.048;-1.928;2023-08-06T10:47:26;101241.06;;;19.30;100.00
45050;BME280;61798;48.048;-1.928;2023-08-06T10:49:34;101226.97;;;18.85;100.00
45050;BME280;61798;48.048;-1.928;2023-08-06T10:51:40;101214.00;;;18.99;100.00